This is the latest recevied weather packets stored in our database for station/object W5HKR. If no packets are shown the sender has not sent any weather packets the latest 10 day(s).
| Time | Temp. | Humidity | Pressure | Rain* | Wind** | Luminosity | Snow |
|---|---|---|---|---|---|---|---|
| 1777527503 | 18.33° C | 91% | 990.6 hPa | 0 mm | - | - | - |
| 1777527203 | 18.33° C | 91% | 990.6 hPa | 0 mm | - | - | - |
| 1777526903 | 18.33° C | 91% | 990.6 hPa | 0 mm | - | - | - |
| 1777526604 | 18.89° C | 87% | 984.4 hPa | 0 mm | - | - | - |
| 1777526555 | 18.89° C | 87% | 984.4 hPa | 0 mm | - | - | - |
| 1777526303 | 18.33° C | 91% | 990.6 hPa | 0 mm | - | - | - |
| 1777526003 | 18.89° C | 87% | 984.2 hPa | 0 mm | - | - | - |
| 1777525474 | 18.33° C | 91% | 990.6 hPa | 0 mm | - | - | - |
| 1777525103 | 19.44° C | 86% | 983.9 hPa | 0 mm | - | - | - |
| 1777524803 | 19.44° C | 86% | 984.1 hPa | 0 mm | - | - | - |
| 1777524504 | 19.44° C | 86% | 984.5 hPa | 0 mm | - | - | - |
| 1777524394 | 18.33° C | 91% | 990.6 hPa | 0 mm | - | - | - |
| 1777524204 | 19.44° C | 86% | 984.6 hPa | 0 mm | - | - | - |
| 1777523903 | 19.44° C | 86% | 984.9 hPa | 0 mm | - | - | - |
| 1777523603 | 19.44° C | 86% | 984.7 hPa | 0 mm | - | - | - |
| 1777523304 | 19.44° C | 86% | 984.5 hPa | 0 mm | - | - | - |
| 1777522704 | 19.44° C | 86% | 984.7 hPa | 0 mm | - | - | - |
| 1777522403 | 19.44° C | 86% | 984.9 hPa | 0 mm | - | - | - |
| 1777522234 | 18.33° C | 91% | 990.6 hPa | 0 mm | - | - | - |
| 1777522104 | 18.33° C | 91% | 990.6 hPa | 0 mm | - | - | - |
| 1777521803 | 18.33° C | 91% | 990.6 hPa | 0 mm | - | - | - |
| 1777521503 | 18.33° C | 91% | 990.6 hPa | 0 mm | - | - | - |
| 1777521205 | 20° C | 85% | 983.4 hPa | 0 mm | - | - | - |
| 1777521155 | 20° C | 85% | 983.4 hPa | 0 mm | - | - | - |
| 1777520904 | 18.33° C | 91% | 990.6 hPa | 0 mm | - | - | - |
* Rain latest hour (hover to see other rain measurements)
** Current wind speed in m/s (hover to see current wind gust speed)